createdAt,value
2023-07-24T00:00:00.141Z,92.20
2023-07-24T00:00:12.756Z,92.20
2023-07-24T00:00:24.519Z,92.20
2023-07-24T00:00:36.833Z,92.20
2023-07-24T00:00:48.780Z,92.30
2023-07-24T00:01:00.594Z,92.30
2023-07-24T00:01:12.453Z,92.30
2023-07-24T00:01:24.422Z,92.20
2023-07-24T00:01:36.177Z,92.30
2023-07-24T00:01:47.931Z,92.30
2023-07-24T00:01:59.655Z,92.30
2023-07-24T00:02:11.465Z,92.30
2023-07-24T00:02:23.212Z,92.40
2023-07-24T00:02:34.979Z,92.40
2023-07-24T00:02:46.928Z,92.40
2023-07-24T00:02:58.779Z,92.30
2023-07-24T00:03:10.760Z,92.30
2023-07-24T00:03:22.709Z,92.40
2023-07-24T00:03:34.604Z,92.40
2023-07-24T00:03:46.681Z,92.40
2023-07-24T00:03:59.989Z,92.40
2023-07-24T00:04:11.748Z,92.40
2023-07-24T00:04:23.675Z,92.40
2023-07-24T00:04:35.431Z,92.50
2023-07-24T00:04:47.244Z,92.50
2023-07-24T00:04:59.050Z,92.50
2023-07-24T00:05:11.379Z,92.40
2023-07-24T00:05:23.133Z,92.40
2023-07-24T00:05:35.640Z,92.30
2023-07-24T00:05:47.440Z,92.40
2023-07-24T00:06:00.551Z,92.40
2023-07-24T00:06:12.305Z,92.40
2023-07-24T00:06:24.213Z,92.40
2023-07-24T00:06:35.977Z,92.40
2023-07-24T00:06:47.693Z,92.60
2023-07-24T00:06:59.963Z,92.60
2023-07-24T00:07:11.741Z,92.50
2023-07-24T00:07:24.306Z,92.40
2023-07-24T00:07:36.057Z,92.30
2023-07-24T00:07:47.823Z,92.30
2023-07-24T00:07:59.770Z,92.30
2023-07-24T00:08:11.971Z,92.30
2023-07-24T00:08:23.736Z,92.30
2023-07-24T00:08:35.496Z,92.50
2023-07-24T00:08:47.266Z,92.40
2023-07-24T00:08:59.004Z,92.50
2023-07-24T00:09:10.747Z,92.50
2023-07-24T00:09:22.556Z,92.60
2023-07-24T00:09:34.315Z,92.60
2023-07-24T00:09:46.076Z,92.60
2023-07-24T00:09:57.871Z,92.50
2023-07-24T00:10:10.079Z,92.40
2023-07-24T00:10:21.877Z,92.40
2023-07-24T00:10:33.797Z,92.40
2023-07-24T00:10:45.762Z,92.50
2023-07-24T00:10:57.524Z,92.50
2023-07-24T00:11:09.460Z,92.50
2023-07-24T00:11:21.237Z,92.60
2023-07-24T00:11:33.030Z,92.60
2023-07-24T00:11:44.882Z,92.70
2023-07-24T00:11:56.647Z,92.70
2023-07-24T00:12:08.761Z,92.70
2023-07-24T00:12:20.499Z,92.60
2023-07-24T00:12:32.248Z,92.60
2023-07-24T00:12:44.055Z,92.60
2023-07-24T00:12:55.802Z,92.70
2023-07-24T00:13:07.905Z,92.70
2023-07-24T00:13:19.715Z,92.70
2023-07-24T00:13:31.480Z,92.70
2023-07-24T00:13:43.251Z,92.70
2023-07-24T00:13:55.010Z,92.70
2023-07-24T00:14:06.737Z,92.70
2023-07-24T00:14:18.490Z,92.80
2023-07-24T00:14:30.266Z,92.80
2023-07-24T00:14:42.030Z,93.00
2023-07-24T00:14:54.031Z,92.70
2023-07-24T00:15:06.338Z,92.80
2023-07-24T00:15:18.365Z,92.80
2023-07-24T00:15:30.157Z,92.80
2023-07-24T00:15:41.948Z,92.80
2023-07-24T00:15:53.720Z,92.80
2023-07-24T00:16:09.449Z,92.80
2023-07-24T00:16:21.197Z,92.70
2023-07-24T00:16:33.344Z,92.90
2023-07-24T00:16:45.245Z,92.80
2023-07-24T00:16:57.043Z,92.80
2023-07-24T00:17:08.957Z,92.90
2023-07-24T00:17:20.876Z,92.80
2023-07-24T00:17:32.820Z,92.90
2023-07-24T00:17:44.635Z,92.90
2023-07-24T00:17:56.388Z,92.90
2023-07-24T00:18:08.251Z,92.90
2023-07-24T00:18:20.114Z,92.90
2023-07-24T00:18:31.898Z,92.80
2023-07-24T00:18:43.648Z,92.70
2023-07-24T00:18:55.525Z,92.90
2023-07-24T00:19:07.401Z,92.80
2023-07-24T00:19:19.381Z,92.80
2023-07-24T00:19:31.246Z,92.90
2023-07-24T00:19:42.984Z,92.90
2023-07-24T00:19:54.694Z,92.90
2023-07-24T00:20:07.615Z,93.00
2023-07-24T00:20:19.544Z,93.00
2023-07-24T00:20:31.325Z,93.00
2023-07-24T00:20:43.123Z,93.00
2023-07-24T00:20:55.020Z,93.00
2023-07-24T00:21:06.873Z,93.00
2023-07-24T00:21:18.683Z,93.00
2023-07-24T00:21:31.518Z,93.00
2023-07-24T00:21:43.334Z,93.00
2023-07-24T00:21:55.103Z,93.00
2023-07-24T00:22:07.063Z,93.00
2023-07-24T00:22:18.908Z,93.10
2023-07-24T00:22:30.809Z,93.10
2023-07-24T00:22:42.652Z,93.10
2023-07-24T00:22:54.393Z,93.20
2023-07-24T00:23:06.211Z,93.20
2023-07-24T00:23:18.130Z,93.20
2023-07-24T00:23:29.953Z,93.10
2023-07-24T00:23:41.756Z,93.10
2023-07-24T00:23:53.544Z,93.20
2023-07-24T00:24:05.629Z,93.20
2023-07-24T00:26:55.098Z,93.00
2023-07-24T00:27:07.298Z,93.30
2023-07-24T00:27:19.011Z,93.30
2023-07-24T00:27:30.779Z,93.30
2023-07-24T00:27:42.509Z,93.30
2023-07-24T00:27:54.668Z,93.20
2023-07-24T00:28:06.533Z,93.30
2023-07-24T00:28:18.356Z,93.30
2023-07-24T00:28:30.195Z,93.30
2023-07-24T00:28:41.935Z,93.30
2023-07-24T00:28:53.738Z,93.40
2023-07-24T00:29:05.500Z,93.50
2023-07-24T00:29:17.276Z,93.20
2023-07-24T00:29:29.072Z,93.30
2023-07-24T00:29:40.927Z,93.40
2023-07-24T00:29:52.704Z,93.40
2023-07-24T00:30:04.807Z,93.40
2023-07-24T00:30:16.959Z,93.40
2023-07-24T00:30:28.782Z,93.40
2023-07-24T00:30:40.556Z,93.40
2023-07-24T00:30:52.424Z,93.40
2023-07-24T00:31:04.292Z,93.40
2023-07-24T00:31:16.073Z,93.40
2023-07-24T00:31:27.816Z,93.40
2023-07-24T00:31:39.569Z,93.50
2023-07-24T00:31:51.423Z,93.50
2023-07-24T00:32:03.300Z,93.40
2023-07-24T00:32:15.240Z,93.50
2023-07-24T00:32:27.024Z,93.50
2023-07-24T00:32:38.988Z,93.50
2023-07-24T00:32:50.798Z,93.50
2023-07-24T00:33:02.615Z,93.50
2023-07-24T00:33:14.852Z,93.60
2023-07-24T00:33:26.615Z,93.50
2023-07-24T00:33:38.398Z,93.50
2023-07-24T00:33:50.159Z,93.40
2023-07-24T00:34:01.944Z,93.50
2023-07-24T00:34:13.718Z,93.50
2023-07-24T00:34:27.521Z,93.60
2023-07-24T00:34:41.168Z,93.70
2023-07-24T00:34:53.372Z,93.60
2023-07-24T00:35:05.834Z,93.70
2023-07-24T00:35:17.671Z,93.60
2023-07-24T00:35:29.731Z,93.70
2023-07-24T00:35:41.473Z,93.60
2023-07-24T00:35:58.934Z,93.60
2023-07-24T00:36:10.647Z,93.70
2023-07-24T00:36:22.569Z,93.60
2023-07-24T00:36:34.476Z,93.70
2023-07-24T00:36:46.294Z,93.70
2023-07-24T00:36:58.316Z,93.70
2023-07-24T00:37:10.163Z,93.60
2023-07-24T00:37:21.970Z,93.70
2023-07-24T00:37:33.951Z,93.70
2023-07-24T00:37:45.737Z,93.70
2023-07-24T00:37:57.595Z,93.60
2023-07-24T00:38:09.455Z,93.80
2023-07-24T00:38:21.248Z,93.70
2023-07-24T00:38:33.089Z,93.80
2023-07-24T00:38:44.976Z,93.80
2023-07-24T00:38:56.831Z,93.90
2023-07-24T00:39:08.619Z,93.70
2023-07-24T00:39:20.428Z,93.70
2023-07-24T00:39:32.188Z,93.70
2023-07-24T00:39:43.944Z,93.80
2023-07-24T00:39:55.762Z,93.80
2023-07-24T00:40:08.184Z,93.80
2023-07-24T00:40:20.062Z,93.80
2023-07-24T00:40:31.951Z,93.80
2023-07-24T00:40:43.711Z,93.80
2023-07-24T00:40:55.552Z,93.80
2023-07-24T00:41:07.362Z,93.80
2023-07-24T00:41:19.107Z,93.80
2023-07-24T00:41:30.876Z,93.80
2023-07-24T00:41:43.923Z,93.80
2023-07-24T00:41:55.645Z,93.80
2023-07-24T00:42:07.699Z,93.70
2023-07-24T00:42:19.520Z,93.80
2023-07-24T00:42:31.299Z,93.80
2023-07-24T00:42:48.313Z,93.80
2023-07-24T00:43:00.322Z,93.90
2023-07-24T00:43:12.166Z,93.80
2023-07-24T00:43:24.122Z,93.80
2023-07-24T00:43:36.227Z,93.80
2023-07-24T00:43:48.050Z,93.80
2023-07-24T00:43:59.861Z,93.70
2023-07-24T00:44:11.678Z,93.70
2023-07-24T00:44:23.467Z,93.80
2023-07-24T00:44:35.290Z,93.80
2023-07-24T00:44:47.134Z,93.80
2023-07-24T00:44:58.898Z,93.80
2023-07-24T00:45:10.855Z,93.80
2023-07-24T00:45:23.339Z,93.80
2023-07-24T00:45:35.166Z,93.80
2023-07-24T00:45:47.141Z,93.90
2023-07-24T00:45:58.984Z,93.90
2023-07-24T00:46:11.092Z,93.90
2023-07-24T00:46:23.092Z,93.90
2023-07-24T00:46:34.956Z,93.80
2023-07-24T00:46:47.011Z,93.90
2023-07-24T00:46:58.940Z,93.90
2023-07-24T00:47:10.751Z,93.90
2023-07-24T00:47:22.997Z,93.90
2023-07-24T00:47:35.058Z,94.00
2023-07-24T00:47:47.032Z,94.20
2023-07-24T00:47:59.990Z,94.00
2023-07-24T00:48:11.892Z,93.90
2023-07-24T00:48:23.790Z,93.90
2023-07-24T00:48:35.687Z,94.00
2023-07-24T00:48:47.476Z,94.00
2023-07-24T00:49:02.324Z,94.00
2023-07-24T00:49:14.186Z,94.00
2023-07-24T00:49:25.941Z,93.90
2023-07-24T00:49:37.823Z,93.90
2023-07-24T00:49:49.690Z,94.00
2023-07-24T00:50:01.650Z,94.00
2023-07-24T00:50:13.732Z,94.00
2023-07-24T00:50:25.483Z,94.00
2023-07-24T00:50:37.251Z,94.00
2023-07-24T00:50:48.993Z,94.00
2023-07-24T00:51:00.745Z,93.90
2023-07-24T00:51:12.575Z,93.90
2023-07-24T00:51:24.419Z,94.00
2023-07-24T00:51:36.209Z,94.00
2023-07-24T00:51:48.017Z,94.00
2023-07-24T00:51:59.878Z,93.90
2023-07-24T00:52:11.690Z,94.00
2023-07-24T00:52:23.491Z,94.10
2023-07-24T00:52:35.387Z,94.10
2023-07-24T00:52:47.236Z,94.00
2023-07-24T00:52:59.099Z,94.00
2023-07-24T00:53:12.637Z,93.90
2023-07-24T00:53:24.513Z,93.90
2023-07-24T00:53:36.330Z,94.00
2023-07-24T00:53:48.981Z,94.00
2023-07-24T00:54:01.786Z,94.10
2023-07-24T00:54:13.611Z,94.10
2023-07-24T00:54:25.374Z,94.00
2023-07-24T00:54:37.338Z,94.00
2023-07-24T00:54:49.109Z,94.00
2023-07-24T00:55:00.873Z,94.00
2023-07-24T00:55:13.772Z,94.00
2023-07-24T00:55:25.601Z,94.00
2023-07-24T00:55:37.440Z,94.00
2023-07-24T00:55:49.804Z,94.10
2023-07-24T00:56:01.583Z,94.10
2023-07-24T00:56:13.382Z,94.10
2023-07-24T00:56:25.133Z,94.10
2023-07-24T00:56:37.042Z,94.10
2023-07-24T00:56:48.817Z,94.00
2023-07-24T00:57:00.797Z,94.00
2023-07-24T00:57:12.992Z,94.00
2023-07-24T00:57:25.025Z,94.00
2023-07-24T00:57:36.856Z,94.00
2023-07-24T00:57:48.635Z,94.00
2023-07-24T00:58:00.402Z,94.00
2023-07-24T00:58:12.460Z,94.00
2023-07-24T00:58:24.231Z,94.00
2023-07-24T00:58:37.713Z,94.00
2023-07-24T00:58:49.547Z,94.00
2023-07-24T00:59:01.903Z,94.00
2023-07-24T00:59:13.785Z,94.00
2023-07-24T00:59:25.493Z,94.00
2023-07-24T00:59:37.240Z,94.00
2023-07-24T00:59:48.999Z,94.00
2023-07-24T01:00:00.757Z,94.00
2023-07-24T01:00:12.982Z,94.00
2023-07-24T01:00:24.772Z,94.00
2023-07-24T01:00:36.539Z,94.00
2023-07-24T01:00:48.315Z,93.90
2023-07-24T01:01:00.268Z,93.90
2023-07-24T01:01:12.236Z,93.90
2023-07-24T01:01:24.359Z,93.90
2023-07-24T01:01:36.476Z,93.80
2023-07-24T01:01:48.299Z,93.80
2023-07-24T01:02:00.130Z,93.80
2023-07-24T01:02:12.410Z,93.80
2023-07-24T01:02:24.263Z,93.80
2023-07-24T01:02:36.209Z,93.80
2023-07-24T01:02:48.097Z,93.80
2023-07-24T01:03:00.689Z,93.80
2023-07-24T01:03:13.697Z,93.80
2023-07-24T01:03:28.447Z,93.90
2023-07-24T01:03:40.432Z,93.90
2023-07-24T01:03:52.744Z,93.80
2023-07-24T01:04:04.627Z,93.80
2023-07-24T01:04:16.534Z,93.80
2023-07-24T01:04:28.379Z,93.80
2023-07-24T01:04:40.520Z,93.70
2023-07-24T01:04:52.435Z,93.80
2023-07-24T01:05:04.436Z,93.80
2023-07-24T01:05:16.505Z,93.80
2023-07-24T01:05:28.314Z,93.80
2023-07-24T01:05:41.466Z,93.80
2023-07-24T01:05:53.268Z,93.80
2023-07-24T01:06:05.255Z,93.80
2023-07-24T01:06:17.135Z,93.80
2023-07-24T01:06:29.454Z,93.90
2023-07-24T01:06:41.668Z,93.80
2023-07-24T01:06:53.515Z,93.90
2023-07-24T01:07:05.511Z,94.10
2023-07-24T01:07:17.813Z,93.80
2023-07-24T01:07:29.578Z,93.70
2023-07-24T01:07:41.401Z,93.80
2023-07-24T01:07:53.505Z,93.80
2023-07-24T01:08:05.691Z,93.80
2023-07-24T01:08:17.497Z,93.80
2023-07-24T01:08:29.622Z,93.70
2023-07-24T01:08:41.416Z,93.70
2023-07-24T01:08:53.205Z,93.70
2023-07-24T01:09:05.024Z,93.60
2023-07-24T01:09:16.867Z,93.60
2023-07-24T01:09:28.650Z,93.50
2023-07-24T01:09:40.518Z,93.50
2023-07-24T01:09:52.462Z,93.50
2023-07-24T01:10:04.447Z,93.50
2023-07-24T01:10:16.352Z,93.50
2023-07-24T01:10:28.093Z,93.50
2023-07-24T01:10:39.879Z,93.50
2023-07-24T01:10:51.602Z,93.50
2023-07-24T01:11:25.389Z,93.50
2023-07-24T01:11:53.017Z,93.50
2023-07-24T01:12:15.083Z,93.50
2023-07-24T01:12:40.344Z,93.90
2023-07-24T01:13:07.130Z,93.70
2023-07-24T01:13:21.401Z,93.80
2023-07-24T01:13:36.026Z,94.00
2023-07-24T01:14:10.575Z,94.00
2023-07-24T01:14:38.302Z,94.20
2023-07-24T01:14:59.375Z,94.40
2023-07-24T01:15:28.581Z,94.70
2023-07-24T01:15:44.020Z,95.00
2023-07-24T01:16:07.292Z,95.00
2023-07-24T01:16:20.038Z,95.20
2023-07-24T01:16:37.254Z,95.60
2023-07-24T01:16:49.169Z,95.60
2023-07-24T01:17:01.071Z,95.60
2023-07-24T01:17:15.542Z,95.60
2023-07-24T01:17:27.386Z,95.70
2023-07-24T01:17:42.754Z,96.20
2023-07-24T01:18:02.086Z,96.00
2023-07-24T01:18:14.413Z,96.10
2023-07-24T01:18:26.239Z,95.60
2023-07-24T01:18:38.313Z,95.80
2023-07-24T01:18:50.315Z,95.60
2023-07-24T01:19:02.072Z,95.70
2023-07-24T01:19:36.805Z,95.80
2023-07-24T01:19:49.911Z,95.70
2023-07-24T01:20:04.244Z,96.60
2023-07-24T01:20:17.204Z,96.50
2023-07-24T01:20:30.271Z,97.00
2023-07-24T01:20:44.894Z,97.10
2023-07-24T01:20:58.014Z,97.40
2023-07-24T01:21:10.137Z,97.70
2023-07-24T01:21:24.633Z,98.00
2023-07-24T01:21:45.601Z,98.00
2023-07-24T01:22:04.240Z,98.10
2023-07-24T01:22:28.305Z,98.60
2023-07-24T01:22:41.380Z,98.40
2023-07-24T01:23:05.722Z,99.00
2023-07-24T01:23:42.967Z,99.20
2023-07-24T01:23:54.914Z,99.60
2023-07-24T01:24:31.358Z,99.70
2023-07-24T01:25:12.593Z,99.90
2023-07-24T01:25:30.167Z,99.90
2023-07-24T01:26:01.035Z,99.90
2023-07-24T01:26:12.743Z,99.90
2023-07-24T01:26:25.163Z,99.90
2023-07-24T01:26:37.085Z,99.90
2023-07-24T01:26:48.899Z,99.90
2023-07-24T01:27:00.685Z,99.90
2023-07-24T01:27:12.522Z,99.90
2023-07-24T01:27:27.252Z,99.90
2023-07-24T01:27:45.607Z,99.90
2023-07-24T01:27:57.445Z,99.90
2023-07-24T01:28:09.252Z,99.90
2023-07-24T01:28:21.018Z,99.90
2023-07-24T01:28:32.848Z,99.90
2023-07-24T01:28:44.695Z,99.90
2023-07-24T01:28:56.455Z,99.90
2023-07-24T01:29:08.237Z,99.90
2023-07-24T01:29:20.010Z,99.90
2023-07-24T01:29:31.994Z,99.90
2023-07-24T01:29:43.819Z,99.90
2023-07-24T01:29:55.587Z,99.90
2023-07-24T01:30:08.044Z,99.90
2023-07-24T01:30:20.626Z,99.90
2023-07-24T01:30:32.470Z,99.90
2023-07-24T01:30:44.364Z,99.90
2023-07-24T01:30:56.436Z,99.90
2023-07-24T01:31:08.423Z,99.90
2023-07-24T01:31:20.415Z,99.90
2023-07-24T01:31:32.153Z,99.90
2023-07-24T01:31:43.995Z,99.90
2023-07-24T01:31:55.770Z,99.90
2023-07-24T01:32:07.985Z,99.90
2023-07-24T01:32:20.406Z,99.90
2023-07-24T01:32:32.321Z,99.90
2023-07-24T01:32:44.156Z,99.90
2023-07-24T01:32:55.994Z,99.90
2023-07-24T01:33:07.926Z,99.90
2023-07-24T01:33:20.202Z,99.90
2023-07-24T01:33:33.964Z,99.90
2023-07-24T01:33:45.856Z,99.90
2023-07-24T01:33:57.701Z,99.90
2023-07-24T01:34:10.029Z,99.90
2023-07-24T01:34:21.884Z,99.90
2023-07-24T01:34:33.705Z,99.90
2023-07-24T01:34:45.498Z,99.90
2023-07-24T01:34:57.306Z,99.90
2023-07-24T01:35:09.085Z,99.90
2023-07-24T01:35:20.877Z,99.90
2023-07-24T01:35:32.779Z,99.90
2023-07-24T01:35:44.981Z,99.90
2023-07-24T01:35:58.870Z,99.90
2023-07-24T01:36:10.613Z,99.90
2023-07-24T01:36:22.424Z,99.90
2023-07-24T01:36:34.190Z,99.90
2023-07-24T01:36:45.981Z,99.90
2023-07-24T01:36:57.763Z,99.90
2023-07-24T01:37:09.599Z,99.90
2023-07-24T01:37:24.144Z,99.90
2023-07-24T01:37:36.602Z,99.90
2023-07-24T01:37:48.444Z,99.90
2023-07-24T01:38:00.313Z,99.90
2023-07-24T01:38:13.569Z,99.90
2023-07-24T01:38:26.217Z,99.90
2023-07-24T01:38:37.929Z,99.90
2023-07-24T01:38:50.397Z,99.90
2023-07-24T01:39:02.284Z,99.90
2023-07-24T01:39:14.088Z,99.90
2023-07-24T01:39:25.908Z,99.90
2023-07-24T01:39:37.704Z,99.90
2023-07-24T01:39:49.625Z,99.90
2023-07-24T01:40:01.522Z,99.90
2023-07-24T01:40:13.413Z,99.90
2023-07-24T01:40:25.311Z,99.90
2023-07-24T01:40:37.187Z,99.90
2023-07-24T01:40:49.004Z,99.90
2023-07-24T01:41:00.884Z,99.90
2023-07-24T01:41:12.812Z,99.90
2023-07-24T01:41:24.672Z,99.90
2023-07-24T01:41:36.544Z,99.90
2023-07-24T01:41:48.350Z,99.90
2023-07-24T01:42:00.091Z,99.90
2023-07-24T01:42:12.087Z,99.90
2023-07-24T01:42:24.973Z,99.90
2023-07-24T01:42:36.830Z,99.90
2023-07-24T01:42:49.480Z,99.90
2023-07-24T01:43:01.342Z,99.90
2023-07-24T01:43:13.227Z,99.90
2023-07-24T01:43:27.253Z,99.90
2023-07-24T01:43:39.111Z,99.90
2023-07-24T01:43:50.868Z,99.90
2023-07-24T01:44:02.819Z,99.90
2023-07-24T01:44:14.572Z,99.90
2023-07-24T01:44:26.365Z,99.90
2023-07-24T01:44:38.204Z,99.90
2023-07-24T01:44:55.967Z,99.90
2023-07-24T01:45:08.435Z,99.90
2023-07-24T01:45:20.516Z,99.90
2023-07-24T01:45:33.065Z,99.90
2023-07-24T01:45:44.932Z,99.90
2023-07-24T01:45:57.435Z,99.90
2023-07-24T01:46:09.874Z,99.90
2023-07-24T01:46:21.797Z,99.90
2023-07-24T01:46:33.958Z,99.90
2023-07-24T01:46:46.330Z,99.90
2023-07-24T01:46:58.346Z,99.90
2023-07-24T01:47:10.306Z,99.90
2023-07-24T01:47:22.662Z,99.90
2023-07-24T01:47:34.602Z,99.90
2023-07-24T01:47:46.456Z,99.90
2023-07-24T01:47:58.393Z,99.90
2023-07-24T01:48:10.311Z,99.90
2023-07-24T01:48:22.103Z,99.90
2023-07-24T01:48:34.018Z,99.90
2023-07-24T01:48:46.934Z,99.90
2023-07-24T01:48:58.748Z,99.90
2023-07-24T01:49:10.503Z,99.90
2023-07-24T01:49:22.235Z,99.90
2023-07-24T01:49:34.029Z,99.90
2023-07-24T01:49:45.815Z,99.90
2023-07-24T01:49:57.785Z,99.90
2023-07-24T01:50:09.732Z,99.90
2023-07-24T01:50:21.507Z,99.90
2023-07-24T01:50:33.445Z,99.90
2023-07-24T01:50:45.261Z,99.90
2023-07-24T01:50:57.081Z,99.90
2023-07-24T01:51:08.899Z,99.90
2023-07-24T01:51:20.676Z,99.90
2023-07-24T01:51:32.451Z,99.90
2023-07-24T01:51:44.770Z,99.90
2023-07-24T01:51:57.772Z,99.90
2023-07-24T01:52:09.674Z,99.90
2023-07-24T01:52:21.455Z,99.90
2023-07-24T01:52:33.348Z,99.90
2023-07-24T01:52:46.643Z,99.90
2023-07-24T01:52:58.395Z,99.90
2023-07-24T01:53:10.722Z,99.90
2023-07-24T01:53:22.895Z,99.90
2023-07-24T01:53:34.759Z,99.90
2023-07-24T01:53:46.629Z,99.90
2023-07-24T01:53:58.386Z,99.90
2023-07-24T01:54:10.256Z,99.90
2023-07-24T01:54:22.111Z,99.90
2023-07-24T01:54:33.910Z,99.90
2023-07-24T01:54:45.813Z,99.90
2023-07-24T01:54:57.592Z,99.90
2023-07-24T01:55:10.279Z,99.90
2023-07-24T01:55:22.108Z,99.90
2023-07-24T01:55:33.987Z,99.90
2023-07-24T01:55:45.845Z,99.90
2023-07-24T01:55:59.620Z,99.90
2023-07-24T01:56:11.484Z,99.90
2023-07-24T01:56:23.282Z,99.90
2023-07-24T01:56:37.006Z,99.90
2023-07-24T01:56:48.807Z,99.90
2023-07-24T01:57:00.702Z,99.90
2023-07-24T01:57:12.638Z,99.90
2023-07-24T01:57:24.439Z,99.90
2023-07-24T01:57:36.203Z,99.90
2023-07-24T01:57:48.068Z,99.90
2023-07-24T01:57:59.904Z,99.90
2023-07-24T01:58:11.757Z,99.90
2023-07-24T01:58:23.839Z,99.90
2023-07-24T01:58:35.636Z,99.90
2023-07-24T01:58:47.704Z,99.90
2023-07-24T01:58:59.481Z,99.90
2023-07-24T01:59:11.220Z,99.90
2023-07-24T01:59:23.005Z,99.90
2023-07-24T01:59:34.795Z,99.90
2023-07-24T01:59:46.591Z,99.90
2023-07-24T01:59:58.458Z,99.90
2023-07-24T02:00:10.887Z,99.90
2023-07-24T02:00:22.890Z,99.90
2023-07-24T02:00:34.741Z,99.90
2023-07-24T02:00:46.606Z,99.90
2023-07-24T02:00:58.471Z,99.90
2023-07-24T02:01:10.315Z,99.90
2023-07-24T02:01:22.289Z,99.90
2023-07-24T02:01:34.134Z,99.90
2023-07-24T02:01:46.000Z,99.90
2023-07-24T02:01:57.863Z,99.90
2023-07-24T02:02:09.657Z,99.90
2023-07-24T02:02:22.019Z,99.90
2023-07-24T02:02:33.914Z,99.90
2023-07-24T02:02:45.822Z,99.90
2023-07-24T02:02:57.806Z,99.90
2023-07-24T02:03:12.874Z,99.90
2023-07-24T02:03:24.838Z,99.90
2023-07-24T02:03:36.995Z,99.90
2023-07-24T02:03:49.004Z,99.90
2023-07-24T02:04:01.709Z,99.90
2023-07-24T02:04:13.581Z,99.90
2023-07-24T02:04:25.320Z,99.90
2023-07-24T02:04:37.095Z,99.90
2023-07-24T02:04:48.888Z,99.90
2023-07-24T02:05:00.666Z,99.90
2023-07-24T02:05:12.448Z,99.90
2023-07-24T02:05:24.290Z,99.90
2023-07-24T02:05:36.763Z,99.90
2023-07-24T02:05:52.368Z,99.90
2023-07-24T02:06:04.386Z,99.90
2023-07-24T02:06:16.216Z,99.90
2023-07-24T02:06:28.256Z,99.90
2023-07-24T02:06:40.326Z,99.90
2023-07-24T02:06:52.189Z,99.90
2023-07-24T02:07:04.299Z,99.90
2023-07-24T02:07:16.105Z,99.90
2023-07-24T02:07:27.872Z,99.90
2023-07-24T02:07:40.349Z,99.90
2023-07-24T02:07:52.109Z,99.90
2023-07-24T02:08:04.125Z,99.90
2023-07-24T02:08:15.936Z,99.90
2023-07-24T02:08:27.902Z,99.90
2023-07-24T02:08:39.912Z,99.90
2023-07-24T02:08:52.617Z,99.90
2023-07-24T02:09:04.439Z,99.90
2023-07-24T02:09:17.032Z,99.90
2023-07-24T02:09:28.870Z,99.90
2023-07-24T02:09:40.694Z,99.90
2023-07-24T02:09:52.590Z,99.90
2023-07-24T02:10:04.780Z,99.90
2023-07-24T02:10:16.680Z,99.90
2023-07-24T02:10:28.435Z,99.90
2023-07-24T02:10:40.431Z,99.90
2023-07-24T02:10:54.508Z,99.90
2023-07-24T02:11:06.223Z,99.90
2023-07-24T02:11:18.226Z,99.90
2023-07-24T02:11:30.098Z,99.90
2023-07-24T02:11:43.026Z,99.90
2023-07-24T02:11:57.406Z,99.90
2023-07-24T02:12:09.308Z,99.90
2023-07-24T02:12:21.134Z,99.90
2023-07-24T02:12:32.954Z,99.90
2023-07-24T02:12:44.821Z,99.90
2023-07-24T02:12:56.663Z,99.90
2023-07-24T02:13:08.751Z,99.90
2023-07-24T02:13:20.678Z,99.90
2023-07-24T02:13:32.425Z,99.90
2023-07-24T02:13:45.677Z,99.90
2023-07-24T02:13:57.444Z,99.90
2023-07-24T02:14:09.243Z,99.90
2023-07-24T02:14:21.965Z,99.90
2023-07-24T02:14:33.829Z,99.90
2023-07-24T02:14:45.671Z,99.90
2023-07-24T02:14:58.472Z,99.90
2023-07-24T02:15:10.719Z,99.90
2023-07-24T02:15:22.520Z,99.90
2023-07-24T02:15:34.372Z,99.90
2023-07-24T02:15:46.253Z,99.90
2023-07-24T02:15:58.068Z,99.90
2023-07-24T02:16:09.895Z,99.90
2023-07-24T02:16:21.788Z,99.90
2023-07-24T02:16:34.146Z,99.90
2023-07-24T02:16:46.314Z,99.90
2023-07-24T02:16:58.273Z,99.90
2023-07-24T02:17:10.092Z,99.90
2023-07-24T02:17:21.969Z,99.90
2023-07-24T02:17:33.959Z,99.90
2023-07-24T02:17:45.827Z,99.90
2023-07-24T02:17:57.777Z,99.90
2023-07-24T02:18:09.641Z,99.90
2023-07-24T02:18:21.447Z,99.90
2023-07-24T02:18:33.327Z,99.90
2023-07-24T02:18:45.253Z,99.90
2023-07-24T02:18:57.042Z,99.90
2023-07-24T02:19:08.884Z,99.90
2023-07-24T02:19:20.693Z,99.90
2023-07-24T02:19:32.460Z,99.90
2023-07-24T02:19:44.448Z,99.90
2023-07-24T02:19:56.313Z,99.90
2023-07-24T02:20:08.729Z,99.90
2023-07-24T02:20:20.490Z,99.90
2023-07-24T02:20:32.253Z,99.90
2023-07-24T02:20:50.540Z,99.90
2023-07-24T02:21:02.324Z,99.90
2023-07-24T02:21:14.055Z,99.90
2023-07-24T02:21:25.980Z,99.90
2023-07-24T02:21:37.832Z,99.90
2023-07-24T02:21:49.654Z,99.90
2023-07-24T02:22:01.418Z,99.90
2023-07-24T02:22:13.287Z,99.90
2023-07-24T02:22:28.077Z,99.90
2023-07-24T02:22:39.816Z,99.90
2023-07-24T02:22:51.576Z,99.90
2023-07-24T02:23:03.368Z,99.90
2023-07-24T02:23:15.168Z,99.90
2023-07-24T02:23:27.041Z,99.90
2023-07-24T02:23:38.860Z,99.90
2023-07-24T02:23:50.661Z,99.90
2023-07-24T02:24:02.608Z,99.90
2023-07-24T02:24:14.420Z,99.90
2023-07-24T02:24:26.361Z,99.90
2023-07-24T02:24:38.299Z,99.90
2023-07-24T02:24:50.170Z,99.90
2023-07-24T02:25:02.049Z,99.90
2023-07-24T02:25:13.863Z,99.90
2023-07-24T02:25:25.670Z,99.90
2023-07-24T02:25:37.499Z,99.90
2023-07-24T02:25:53.309Z,99.90
2023-07-24T02:26:05.216Z,99.90
2023-07-24T02:26:17.002Z,99.90
2023-07-24T02:26:29.089Z,99.90
2023-07-24T02:26:41.124Z,99.90
2023-07-24T02:26:52.934Z,99.90
2023-07-24T02:27:06.064Z,99.90
2023-07-24T02:27:35.802Z,99.90
2023-07-24T02:27:47.827Z,99.90
2023-07-24T02:27:59.680Z,99.90
2023-07-24T02:28:11.420Z,99.90
2023-07-24T02:28:23.261Z,99.90
2023-07-24T02:28:35.090Z,99.90
2023-07-24T02:28:46.906Z,99.90
2023-07-24T02:28:58.668Z,99.90
2023-07-24T02:29:10.413Z,99.90
2023-07-24T02:29:23.650Z,99.90
2023-07-24T02:29:35.549Z,99.90
2023-07-24T02:29:47.411Z,99.90
2023-07-24T02:29:59.444Z,99.90
2023-07-24T02:30:11.753Z,99.90
2023-07-24T02:30:23.502Z,99.90
2023-07-24T02:30:39.432Z,99.90
2023-07-24T02:30:53.153Z,99.90
2023-07-24T02:31:05.002Z,99.90
2023-07-24T02:31:17.296Z,99.90
2023-07-24T02:31:29.155Z,99.90
2023-07-24T02:31:41.082Z,99.90
2023-07-24T02:31:57.996Z,99.90
2023-07-24T02:32:09.770Z,99.90
2023-07-24T02:32:23.411Z,99.90
2023-07-24T02:32:35.284Z,99.90
2023-07-24T02:32:47.107Z,99.90
2023-07-24T02:32:58.962Z,99.90
2023-07-24T02:33:10.877Z,99.90
2023-07-24T02:33:23.880Z,99.90
2023-07-24T02:33:35.725Z,99.90
2023-07-24T02:33:47.603Z,99.90
2023-07-24T02:33:59.465Z,99.90
2023-07-24T02:34:11.193Z,99.90
2023-07-24T02:34:25.509Z,99.90
2023-07-24T02:34:37.419Z,99.90
2023-07-24T02:34:52.158Z,99.90
2023-07-24T02:35:04.247Z,99.90
2023-07-24T02:35:16.198Z,99.90
2023-07-24T02:35:28.001Z,99.90
2023-07-24T02:35:43.617Z,99.90
2023-07-24T02:35:55.702Z,99.90
2023-07-24T02:36:07.560Z,99.90
2023-07-24T02:36:19.351Z,99.90
2023-07-24T02:36:31.622Z,99.90
2023-07-24T02:36:43.622Z,99.90
2023-07-24T02:36:55.543Z,99.90
2023-07-24T02:37:07.395Z,99.90
2023-07-24T02:37:19.567Z,99.90
2023-07-24T02:37:31.392Z,99.90
2023-07-24T02:37:43.193Z,99.90
2023-07-24T02:37:55.046Z,99.90
2023-07-24T02:38:06.990Z,99.90
2023-07-24T02:38:18.747Z,99.90
2023-07-24T02:38:30.598Z,99.90
2023-07-24T02:38:42.377Z,99.90
2023-07-24T02:38:54.193Z,99.90
2023-07-24T02:39:05.926Z,99.90
2023-07-24T02:39:17.799Z,99.90
2023-07-24T02:39:29.585Z,99.90
2023-07-24T02:39:41.354Z,99.90
2023-07-24T02:39:54.165Z,99.90
2023-07-24T02:40:06.768Z,99.90
2023-07-24T02:40:18.723Z,99.90
2023-07-24T02:40:30.542Z,99.90
2023-07-24T02:40:42.650Z,99.90
2023-07-24T02:40:54.442Z,99.90
2023-07-24T02:41:06.246Z,99.90
2023-07-24T02:41:18.104Z,99.90
2023-07-24T02:41:29.829Z,99.90
2023-07-24T02:41:41.612Z,99.90
2023-07-24T02:41:53.388Z,99.90
2023-07-24T02:42:05.340Z,99.90
2023-07-24T02:42:17.084Z,99.90
2023-07-24T02:42:28.845Z,99.90
2023-07-24T02:42:40.798Z,99.90
2023-07-24T02:42:52.573Z,99.90
2023-07-24T02:43:04.356Z,99.90
2023-07-24T02:43:16.356Z,99.90
2023-07-24T02:43:28.229Z,99.90
2023-07-24T02:43:40.053Z,99.90
2023-07-24T02:43:51.842Z,99.90
2023-07-24T02:44:05.024Z,99.90
2023-07-24T02:44:16.866Z,99.90